Terminal Aerodrome Forecast
Issued by NWS

Home | Current Version | Previous Version | Text Only | Print | Product List | Glossary On
Versions: 1 2 3 4 5 6 7 8 9 10 11 12 13 14 15 16 17 18 19 20 21 22 23 24 25 26
000
FTUS44 KLIX 172300
TAFHUM
TAF
KHUM 172338Z 1800/1824 VRB03KT P6SM SCT040 BKN250
      TEMPO 1800/1802 BKN040
     FM180200 00000KT P6SM FEW045 BKN250
      TEMPO 1809/1813 4SM BR SCT015
     FM181500 VRB04KT P6SM VCSH BKN035 PROB30 1818/1824 3SM -TSRA
      BKN028CB=

USA.gov is the U.S. government's official web portal to all federal, state and local government web resources and services.